Time;durP1;ratioP1;P1;durP2;ratioP2;P2;SDS_P1;SDS_P2;PMS_P1;PMS_P2;Temp;Humidity;BMP_temperature;BMP_pressure;BME280_temperature;BME280_humidity;BME280_pressure;Samples;Min_cycle;Max_cycle;Signal;HPM_P1;HPM_P2
2022/07/22 00:00:54;;;;;;;9.70;4.78;;;;;;;14.74;100.00;102051.03;5137984;27;20035;-85
2022/07/22 00:03:19;;;;;;;8.37;4.33;;;;;;;14.73;100.00;102051.25;5138198;27;20382;-85
2022/07/22 00:05:45;;;;;;;11.60;4.37;;;;;;;14.75;100.00;102054.63;5119362;27;20038;-85
2022/07/22 00:08:10;;;;;;;11.82;5.00;;;;;;;14.76;100.00;102041.81;5119092;27;20272;-86
2022/07/22 00:10:36;;;;;;;14.67;5.07;;;;;;;14.76;100.00;102037.16;5153840;27;20038;-85
2022/07/22 00:13:01;;;;;;;10.17;4.93;;;;;;;14.76;100.00;102039.91;5137472;27;20035;-86
2022/07/22 00:15:26;;;;;;;14.53;5.20;;;;;;;14.79;100.00;102047.66;5137439;27;20475;-86
2022/07/22 00:17:52;;;;;;;12.77;5.18;;;;;;;14.79;100.00;102044.94;5119799;27;20519;-86
2022/07/22 00:20:21;;;;;;;16.97;5.87;;;;;;;14.80;100.00;102037.59;5137408;27;20052;-85
2022/07/22 00:22:46;;;;;;;11.75;5.20;;;;;;;14.80;100.00;102048.53;5119699;27;20347;-85
2022/07/22 00:25:12;;;;;;;12.53;6.00;;;;;;;14.83;100.00;102042.63;5137331;27;20076;-85
2022/07/22 00:27:37;;;;;;;17.00;5.40;;;;;;;14.82;100.00;102040.94;5153056;27;20072;-85
2022/07/22 00:30:03;;;;;;;17.23;5.20;;;;;;;14.83;100.00;102040.72;5119246;27;20027;-85
2022/07/22 00:32:29;;;;;;;13.73;5.50;;;;;;;14.85;100.00;102035.91;5119238;27;20023;-85
2022/07/22 00:34:54;;;;;;;11.17;5.53;;;;;;;14.87;100.00;102050.19;5118946;27;20030;-85
2022/07/22 00:37:20;;;;;;;11.25;5.30;;;;;;;14.85;100.00;102045.97;5118864;27;20039;-85
2022/07/22 00:39:47;;;;;;;14.10;5.30;;;;;;;14.86;100.00;102036.72;5102134;27;20031;-85
2022/07/22 00:42:13;;;;;;;16.02;6.07;;;;;;;14.86;100.00;102048.50;5119036;27;20035;-86
2022/07/22 00:44:39;;;;;;;16.00;5.33;;;;;;;14.85;100.00;102041.38;5085277;27;20463;-86
2022/07/22 00:47:04;;;;;;;15.35;5.30;;;;;;;14.84;100.00;102034.22;5118833;27;20028;-86
2022/07/22 00:49:30;;;;;;;18.30;5.67;;;;;;;14.85;100.00;102037.78;5118617;27;20114;-86
2022/07/22 00:51:55;;;;;;;13.70;5.47;;;;;;;14.88;100.00;102040.94;5101900;27;20356;-86
2022/07/22 00:54:21;;;;;;;13.88;5.82;;;;;;;14.88;100.00;102030.00;5117950;27;20049;-86
2022/07/22 00:56:47;;;;;;;15.23;5.10;;;;;;;14.87;100.00;102031.03;5084770;27;20126;-86
2022/07/22 00:59:13;;;;;;;13.63;5.40;;;;;;;14.85;100.00;102021.38;5118467;27;20383;-86
2022/07/22 01:01:39;;;;;;;14.95;5.43;;;;;;;14.88;100.00;102023.69;5118685;27;20058;-86
2022/07/22 01:04:05;;;;;;;15.97;5.80;;;;;;;14.87;100.00;102027.50;5135562;27;20031;-86
2022/07/22 01:06:32;;;;;;;15.65;5.55;;;;;;;14.90;100.00;102027.06;5118238;27;20023;-86
2022/07/22 01:08:58;;;;;;;14.30;5.03;;;;;;;14.90;100.00;102037.97;5152975;27;20023;-86
2022/07/22 01:11:24;;;;;;;13.47;5.67;;;;;;;14.88;100.00;102023.69;5118204;27;20027;-85
2022/07/22 01:13:51;;;;;;;13.73;5.33;;;;;;;14.87;100.00;102019.28;5084224;27;20281;-85
2022/07/22 01:16:17;;;;;;;14.80;5.55;;;;;;;14.87;100.00;102024.75;5118071;27;20049;-85
2022/07/22 01:18:44;;;;;;;13.45;5.65;;;;;;;14.87;100.00;102025.59;5135318;27;20031;-85
2022/07/22 01:21:11;;;;;;;18.75;6.00;;;;;;;14.86;100.00;102025.81;5117958;27;20027;-85
2022/07/22 01:23:37;;;;;;;11.73;5.30;;;;;;;14.87;100.00;102024.75;5117980;27;20134;-86
2022/07/22 01:26:04;;;;;;;17.20;5.20;;;;;;;14.81;100.00;102012.78;5117852;27;20026;-86
2022/07/22 01:28:29;;;;;;;14.48;5.65;;;;;;;14.81;100.00;102015.53;5117828;27;20035;-85
2022/07/22 01:30:57;;;;;;;14.68;5.60;;;;;;;14.82;100.00;102025.41;5117883;27;20403;-85
2022/07/22 01:33:24;;;;;;;15.13;5.60;;;;;;;14.73;100.00;102016.59;5118420;27;20090;-86
2022/07/22 01:35:52;;;;;;;12.80;4.97;;;;;;;14.64;100.00;102017.88;5117634;27;20118;-86
2022/07/22 01:38:19;;;;;;;13.75;4.90;;;;;;;14.50;100.00;102014.31;5116678;27;20035;-85
2022/07/22 01:40:45;;;;;;;13.75;5.20;;;;;;;14.38;100.00;102011.38;5117293;27;20104;-86
2022/07/22 01:43:11;;;;;;;13.43;5.20;;;;;;;14.28;100.00;102013.72;5117847;27;20071;-85
2022/07/22 01:45:36;;;;;;;21.97;5.63;;;;;;;14.17;100.00;102012.47;5117517;27;20034;-85
2022/07/22 01:48:02;;;;;;;16.40;5.75;;;;;;;14.11;100.00;102018.75;5134709;27;20031;-85
2022/07/22 01:50:28;;;;;;;20.15;6.85;;;;;;;14.02;100.00;102018.16;5135603;27;20058;-85
2022/07/22 01:52:53;;;;;;;17.57;6.30;;;;;;;13.93;100.00;102013.94;5152387;27;20443;-85
2022/07/22 01:55:19;;;;;;;19.03;6.73;;;;;;;13.90;100.00;102024.44;5117063;27;20051;-85
2022/07/22 01:57:45;;;;;;;19.43;6.73;;;;;;;13.84;100.00;102017.91;5117341;27;20023;-85
2022/07/22 02:00:11;;;;;;;15.93;7.55;;;;;;;13.85;100.00;102025.06;5117074;27;20031;-85
2022/07/22 02:02:37;;;;;;;19.98;7.38;;;;;;;13.86;100.00;102026.72;5117195;27;20027;-85
2022/07/22 02:05:04;;;;;;;17.77;7.47;;;;;;;13.86;100.00;102022.13;5100419;27;20372;-85
2022/07/22 02:07:30;;;;;;;18.53;7.43;;;;;;;13.85;100.00;102017.72;5117036;27;20020;-85
2022/07/22 02:09:55;;;;;;;19.05;7.47;;;;;;;13.88;100.00;102013.72;5116641;27;20034;-86
2022/07/22 02:12:21;;;;;;;20.40;7.33;;;;;;;13.91;100.00;102015.22;5117043;27;20035;-86
2022/07/22 02:14:46;;;;;;;19.13;7.57;;;;;;;13.92;100.00;102009.53;5117005;27;20121;-86
2022/07/22 02:17:12;;;;;;;17.05;7.25;;;;;;;13.96;100.00;102010.78;5135003;27;20072;-86
2022/07/22 02:19:38;;;;;;;18.30;7.47;;;;;;;13.95;100.00;102008.25;5116883;27;20015;-84
2022/07/22 02:22:07;;;;;;;17.83;7.47;;;;;;;13.95;100.00;102003.66;5116980;27;20023;-86
2022/07/22 02:24:32;;;;;;;17.95;7.95;;;;;;;14.00;100.00;102008.50;5116429;27;20069;-85
2022/07/22 02:26:58;;;;;;;17.17;7.50;;;;;;;14.01;100.00;102008.28;5099652;27;20051;-85
2022/07/22 02:29:23;;;;;;;22.17;7.75;;;;;;;14.03;100.00;102008.88;5151454;27;20125;-84
2022/07/22 02:31:48;;;;;;;17.60;7.17;;;;;;;14.09;100.00;102006.38;5116720;27;20027;-85
2022/07/22 02:34:14;;;;;;;20.50;7.20;;;;;;;14.11;100.00;102007.84;5116636;27;20034;-85
2022/07/22 02:36:39;;;;;;;20.47;8.07;;;;;;;14.17;100.00;102012.47;5117483;27;20019;-85
2022/07/22 02:39:05;;;;;;;18.52;7.30;;;;;;;14.17;100.00;102011.63;5135295;27;20031;-85
2022/07/22 02:41:30;;;;;;;19.13;7.53;;;;;;;14.19;100.00;102007.63;5116622;27;20130;-85
2022/07/22 02:43:56;;;;;;;18.50;7.17;;;;;;;14.19;100.00;102004.06;5099674;27;20035;-85
2022/07/22 02:46:26;;;;;;;17.17;7.33;;;;;;;14.20;100.00;102003.00;5134482;27;20027;-85
2022/07/22 02:48:51;;;;;;;20.70;7.20;;;;;;;14.24;100.00;102012.44;5116351;27;20291;-85
2022/07/22 02:51:17;;;;;;;25.40;7.63;;;;;;;14.24;100.00;101998.81;5134741;27;20031;-85
2022/07/22 02:53:42;;;;;;;19.70;6.77;;;;;;;14.30;100.00;101999.84;5116996;27;20027;-85
2022/07/22 02:56:08;;;;;;;21.90;7.20;;;;;;;14.31;100.00;102001.53;5116538;28;20440;-85
2022/07/22 02:58:33;;;;;;;18.97;7.10;;;;;;;14.33;100.00;101994.78;5099363;28;20364;-85
2022/07/22 03:00:59;;;;;;;20.77;8.10;;;;;;;14.30;100.00;101994.38;5116427;28;20280;-85
2022/07/22 03:03:24;;;;;;;20.23;7.60;;;;;;;14.31;100.00;101993.34;5108005;28;20405;-85
2022/07/22 03:05:50;;;;;;;21.20;8.07;;;;;;;14.30;100.00;101987.03;5150696;27;20059;-86
2022/07/22 03:08:16;;;;;;;20.00;7.97;;;;;;;14.32;100.00;101993.13;5116062;28;20477;-85
2022/07/22 03:10:41;;;;;;;21.77;7.63;;;;;;;14.25;100.00;101986.00;5134250;28;20081;-85
2022/07/22 03:13:07;;;;;;;20.70;7.93;;;;;;;14.26;100.00;101990.41;5115797;28;20378;-86
2022/07/22 03:15:32;;;;;;;19.73;8.00;;;;;;;14.22;100.00;101987.28;5082238;28;20463;-86
2022/07/22 03:17:58;;;;;;;18.83;7.53;;;;;;;14.24;100.00;101984.31;5099579;28;20588;-85
2022/07/22 03:20:23;;;;;;;15.97;7.33;;;;;;;14.22;100.00;101979.09;5116244;28;20056;-85
2022/07/22 03:22:49;;;;;;;24.45;8.45;;;;;;;14.19;100.00;101979.50;5082324;28;20352;-85
2022/07/22 03:25:14;;;;;;;23.63;7.77;;;;;;;14.21;100.00;101988.31;5099267;28;20035;-85
2022/07/22 03:27:40;;;;;;;21.60;7.70;;;;;;;14.18;100.00;101983.28;5116058;28;20490;-85
2022/07/22 03:30:06;;;;;;;17.98;7.65;;;;;;;14.17;100.00;101979.72;5115856;28;20116;-86
2022/07/22 03:32:31;;;;;;;19.47;7.43;;;;;;;14.18;100.00;101984.09;5116583;28;20542;-86
2022/07/22 03:34:57;;;;;;;22.73;8.27;;;;;;;14.19;100.00;101984.97;5116330;28;20118;-85
2022/07/22 03:37:22;;;;;;;22.10;7.60;;;;;;;14.18;100.00;101980.56;5116331;28;20117;-86
2022/07/22 03:39:48;;;;;;;20.43;7.63;;;;;;;14.17;100.00;101987.06;5134206;28;20031;-85
2022/07/22 03:42:13;;;;;;;27.77;8.47;;;;;;;14.13;100.00;101983.06;5133842;28;20102;-86
2022/07/22 03:44:39;;;;;;;16.67;7.60;;;;;;;14.10;100.00;101984.34;5115765;28;20027;-85
2022/07/22 03:47:04;;;;;;;20.23;7.10;;;;;;;14.09;100.00;101984.56;5098394;28;20032;-86
2022/07/22 03:49:30;;;;;;;26.00;8.10;;;;;;;14.06;100.00;101994.00;5116252;28;20031;-86
2022/07/22 03:51:56;;;;;;;18.13;8.20;;;;;;;14.04;100.00;101991.47;5150072;27;20038;-85
2022/07/22 03:54:21;;;;;;;19.43;7.77;;;;;;;14.06;100.00;101993.16;5115629;28;20039;-86
2022/07/22 03:56:47;;;;;;;20.50;8.27;;;;;;;14.07;100.00;101994.81;5133057;28;20071;-85
2022/07/22 03:59:12;;;;;;;24.80;7.77;;;;;;;14.12;100.00;101995.03;5115193;28;20466;-85
2022/07/22 04:01:38;;;;;;;23.67;8.07;;;;;;;14.19;100.00;101995.88;5116885;27;20023;-85
2022/07/22 04:04:04;;;;;;;17.13;7.80;;;;;;;14.21;100.00;101996.50;5138132;27;20027;-85
2022/07/22 04:06:29;;;;;;;18.25;6.85;;;;;;;14.19;100.00;102004.91;5119182;27;20027;-86
2022/07/22 04:08:55;;;;;;;20.73;7.25;;;;;;;14.24;100.00;102006.16;5118946;27;20027;-85
2022/07/22 04:11:21;;;;;;;17.77;7.07;;;;;;;14.26;100.00;101996.72;5120047;27;20031;-85
2022/07/22 04:13:46;;;;;;;19.70;7.80;;;;;;;14.31;100.00;102009.72;5102529;27;20023;-86
2022/07/22 04:16:12;;;;;;;22.13;8.30;;;;;;;14.37;100.00;102008.88;5118842;27;20277;-88
2022/07/22 04:18:37;;;;;;;21.63;7.43;;;;;;;14.36;100.00;102010.78;5118749;27;20019;-85
2022/07/22 04:21:03;;;;;;;19.90;7.80;;;;;;;14.39;100.00;102007.63;5119223;27;20057;-85
2022/07/22 04:23:28;;;;;;;14.90;7.00;;;;;;;14.39;100.00;102007.63;5119035;27;20034;-85
2022/07/22 04:25:54;;;;;;;12.77;6.77;;;;;;;14.37;100.00;102001.50;5119411;27;20038;-85
2022/07/22 04:28:19;;;;;;;16.27;7.13;;;;;;;14.44;100.00;102003.38;5102930;27;20034;-85
2022/07/22 04:30:45;;;;;;;20.03;7.43;;;;;;;14.43;100.00;102001.72;5118881;27;20024;-85
2022/07/22 04:33:10;;;;;;;19.40;7.40;;;;;;;14.51;100.00;102012.41;5153243;27;20031;-85
2022/07/22 04:35:36;;;;;;;16.70;6.73;;;;;;;14.55;100.00;102002.75;5119031;27;20043;-85
2022/07/22 04:38:01;;;;;;;13.60;6.53;;;;;;;14.63;100.00;102002.56;5119411;27;20035;-86
2022/07/22 04:40:27;;;;;;;21.53;7.17;;;;;;;14.65;100.00;101997.69;5118486;27;20035;-85
2022/07/22 04:42:52;;;;;;;19.27;6.63;;;;;;;14.74;100.00;102001.03;5118653;27;20028;-86
2022/07/22 04:45:17;;;;;;;13.77;6.73;;;;;;;14.78;100.00;101999.56;5118507;27;20027;-85
2022/07/22 04:47:43;;;;;;;12.52;7.22;;;;;;;14.80;100.00;101996.63;5118304;27;20073;-86
2022/07/22 04:50:08;;;;;;;18.27;7.23;;;;;;;14.85;100.00;102000.38;5101369;27;20400;-85
2022/07/22 04:52:34;;;;;;;16.60;7.57;;;;;;;14.83;100.00;101990.72;5118893;27;20039;-86
2022/07/22 04:55:00;;;;;;;18.23;7.77;;;;;;;14.91;100.00;101991.31;5118142;27;20051;-86
2022/07/22 04:57:26;;;;;;;17.37;7.87;;;;;;;14.95;100.00;101977.22;5101674;27;20287;-85
2022/07/22 04:59:52;;;;;;;18.35;8.13;;;;;;;14.97;100.00;101988.75;5118495;27;20112;-85
2022/07/22 05:02:17;;;;;;;18.83;7.65;;;;;;;14.99;100.00;101987.50;5118430;27;20026;-86
2022/07/22 05:04:45;;;;;;;15.87;8.13;;;;;;;14.96;100.00;101989.84;5135507;27;20478;-92
2022/07/22 05:07:11;;;;;;;16.23;8.07;;;;;;;14.93;100.00;101993.81;5102095;27;20114;-92
2022/07/22 05:09:37;;;;;;;22.70;7.57;;;;;;;14.91;100.00;101987.72;5118655;27;20490;-90
2022/07/22 05:12:03;;;;;;;17.55;8.05;;;;;;;14.98;100.00;101987.72;5118394;27;20027;-89
2022/07/22 05:14:29;;;;;;;15.25;7.50;;;;;;;15.07;100.00;101979.06;5117916;27;20015;-89
2022/07/22 05:16:54;;;;;;;20.37;7.93;;;;;;;15.16;100.00;101982.38;5118278;27;20034;-90
2022/07/22 05:19:20;;;;;;;14.90;7.50;;;;;;;15.24;100.00;101982.09;5118336;27;20126;-89
2022/07/22 05:21:45;;;;;;;16.43;8.37;;;;;;;15.33;100.00;101979.13;5118040;27;20421;-90
2022/07/22 05:24:17;;;;;;;22.15;8.50;;;;;;;15.39;100.00;101979.06;5117743;27;20039;-89
2022/07/22 05:26:42;;;;;;;19.25;8.20;;;;;;;15.43;100.00;101972.09;5117738;27;20023;-88
2022/07/22 05:29:08;;;;;;;20.70;8.40;;;;;;;15.46;100.00;101976.31;5100629;27;20027;-89
2022/07/22 05:31:33;;;;;;;18.90;8.77;;;;;;;15.50;100.00;101983.00;5118711;27;20026;-90
2022/07/22 05:34:01;;;;;;;17.67;7.63;;;;;;;15.52;100.00;101980.06;5118252;27;20041;-90
2022/07/22 05:36:26;;;;;;;16.80;7.97;;;;;;;15.53;100.00;101977.09;5118220;27;20023;-90
2022/07/22 05:38:54;;;;;;;17.73;7.93;;;;;;;15.58;100.00;101984.63;5100638;27;20100;-90
2022/07/22 05:41:19;;;;;;;21.67;8.18;;;;;;;15.58;100.00;101985.47;5117730;27;20390;-90
2022/07/22 05:43:45;;;;;;;17.73;7.47;;;;;;;15.60;100.00;101993.44;5118148;27;20019;-90
2022/07/22 05:46:10;;;;;;;19.80;8.20;;;;;;;15.66;100.00;101989.00;5100647;27;20046;-90
2022/07/22 05:48:36;;;;;;;16.00;8.03;;;;;;;15.73;100.00;101987.88;5100507;27;20097;-90
2022/07/22 05:51:02;;;;;;;16.77;7.53;;;;;;;15.86;100.00;101995.19;5100764;27;20059;-90
2022/07/22 05:53:27;;;;;;;17.70;8.20;;;;;;;15.90;100.00;101988.22;5117308;27;20035;-89
2022/07/22 05:55:52;;;;;;;19.03;8.27;;;;;;;16.01;100.00;101989.38;5135364;27;20488;-89
2022/07/22 05:58:18;;;;;;;17.00;7.33;;;;;;;16.17;100.00;101998.09;5100513;27;20019;-88
2022/07/22 06:00:43;;;;;;;14.18;7.53;;;;;;;16.32;100.00;101987.63;5117192;27;20035;-89
2022/07/22 06:03:09;;;;;;;23.33;8.23;;;;;;;16.42;100.00;101987.94;5118266;27;20117;-90
2022/07/22 06:05:37;;;;;;;14.40;7.37;;;;;;;16.49;100.00;101980.47;5135976;27;20019;-89
2022/07/22 06:08:04;;;;;;;23.33;7.07;;;;;;;16.58;100.00;101989.25;5100214;27;20524;-90
2022/07/22 06:10:30;;;;;;;19.42;7.50;;;;;;;16.75;100.00;101994.09;5117039;27;20501;-90
2022/07/22 06:12:55;;;;;;;20.08;6.57;;;;;;;16.86;100.00;101984.25;5117076;27;20023;-89
2022/07/22 06:15:21;;;;;;;18.77;6.53;;;;;;;16.99;100.00;101989.63;5135116;27;20031;-89
2022/07/22 06:17:46;;;;;;;17.23;6.23;;;;;;;17.15;100.00;101990.88;5119246;27;20054;-90
2022/07/22 06:20:12;;;;;;;15.30;6.10;;;;;;;17.22;98.23;101999.03;5100690;27;20600;-91
2022/07/22 06:22:40;;;;;;;16.03;5.97;;;;;;;17.29;97.17;101975.09;5117161;27;20171;-91
2022/07/22 06:25:05;;;;;;;16.23;6.13;;;;;;;17.34;96.69;101981.53;5117066;27;20051;-89
2022/07/22 06:27:33;;;;;;;12.90;5.53;;;;;;;17.48;95.67;101986.81;5117225;27;20504;-90
2022/07/22 06:29:58;;;;;;;10.80;5.35;;;;;;;17.59;95.17;101983.28;5116630;27;20471;-90
2022/07/22 06:32:24;;;;;;;11.37;5.37;;;;;;;17.68;94.46;101984.59;5151312;27;20035;-90
2022/07/22 06:34:52;;;;;;;16.27;5.35;;;;;;;17.83;92.54;101980.59;5135263;27;20046;-90
2022/07/22 06:37:17;;;;;;;13.77;5.32;;;;;;;17.92;91.69;101986.59;5117521;27;20019;-90
2022/07/22 06:39:43;;;;;;;14.67;4.50;;;;;;;17.98;91.03;101980.16;5135568;27;20496;-90
2022/07/22 06:42:08;;;;;;;10.10;4.50;;;;;;;18.02;88.69;101981.34;5135140;27;20466;-90
2022/07/22 06:44:34;;;;;;;16.03;4.33;;;;;;;18.01;88.14;101975.03;5117054;27;20027;-91
2022/07/22 06:46:59;;;;;;;14.50;4.80;;;;;;;18.00;87.82;101973.34;5116788;27;20031;-90
2022/07/22 06:49:24;;;;;;;14.47;4.30;;;;;;;17.99;88.18;101971.66;5117359;28;20027;-91
2022/07/22 06:51:50;;;;;;;10.00;4.90;;;;;;;18.07;89.06;101978.75;5134996;27;20027;-91
2022/07/22 06:54:15;;;;;;;6.22;2.97;;;;;;;18.17;85.42;101978.13;5116243;27;20027;-91
2022/07/22 06:56:41;;;;;;;7.40;3.30;;;;;;;18.26;85.34;101976.69;5150908;27;20049;-91
2022/07/22 06:59:06;;;;;;;8.17;3.57;;;;;;;18.46;84.87;101979.06;5134835;27;20360;-91
2022/07/22 07:01:32;;;;;;;6.30;2.70;;;;;;;18.64;82.79;101972.56;5099490;28;20125;-91
2022/07/22 07:03:57;;;;;;;7.88;2.80;;;;;;;18.84;80.18;101971.31;5134734;28;20039;-91
2022/07/22 07:06:23;;;;;;;6.57;2.90;;;;;;;19.00;79.41;101980.75;5116516;28;20019;-91
2022/07/22 07:08:48;;;;;;;4.13;2.30;;;;;;;19.06;75.32;101975.13;5117232;28;20478;-91
2022/07/22 07:11:16;;;;;;;7.50;2.10;;;;;;;19.16;74.96;101979.16;5116888;28;20080;-91
2022/07/22 07:13:41;;;;;;;5.70;1.85;;;;;;;19.27;73.96;101970.03;5134357;28;20117;-90
2022/07/22 07:16:07;;;;;;;4.00;1.90;;;;;;;19.47;73.39;101964.03;5098937;28;20483;-90
2022/07/22 07:18:33;;;;;;;3.55;1.60;;;;;;;19.56;70.25;101956.19;5099027;28;20035;-91
2022/07/22 07:20:58;;;;;;;5.83;1.67;;;;;;;19.66;71.14;101970.13;5099250;28;20023;-91
2022/07/22 07:23:24;;;;;;;8.18;2.40;;;;;;;19.74;71.87;101960.66;5150369;27;20420;-90
2022/07/22 07:25:51;;;;;;;5.73;2.23;;;;;;;19.83;72.86;101958.31;5134579;28;20034;-90
2022/07/22 07:28:17;;;;;;;3.80;2.33;;;;;;;19.73;71.78;101958.97;5134034;28;20032;-90
2022/07/22 07:30:43;;;;;;;6.73;2.80;;;;;;;19.68;71.49;101958.88;5116181;28;20072;-90
2022/07/22 07:33:08;;;;;;;5.15;2.20;;;;;;;19.62;70.36;101966.22;5134350;28;20046;-90
2022/07/22 07:35:34;;;;;;;6.83;2.33;;;;;;;19.55;71.30;101962.81;5134848;27;20447;-91
2022/07/22 07:38:02;;;;;;;6.18;2.55;;;;;;;19.57;72.31;101966.97;5119231;27;20023;-90
2022/07/22 07:40:27;;;;;;;8.10;2.20;;;;;;;19.60;68.95;101969.22;5119977;27;20100;-91
2022/07/22 07:42:55;;;;;;;4.37;1.70;;;;;;;19.60;67.58;101954.63;5120099;27;20534;-91
2022/07/22 07:45:20;;;;;;;5.93;2.00;;;;;;;19.65;68.67;101954.72;5103698;27;20359;-90
2022/07/22 07:47:46;;;;;;;4.60;1.60;;;;;;;19.78;69.16;101959.06;5119787;27;20019;-90
2022/07/22 07:50:12;;;;;;;7.63;2.10;;;;;;;19.89;68.67;101958.16;5138433;27;20079;-90
2022/07/22 07:52:42;;;;;;;6.50;1.90;;;;;;;19.94;68.56;101954.66;5138039;27;20581;-90
2022/07/22 07:55:09;;;;;;;4.00;1.80;;;;;;;19.95;67.86;101953.56;5137812;27;20371;-91
2022/07/22 07:57:36;;;;;;;4.40;2.42;;;;;;;19.97;68.08;101959.66;5119261;27;20106;-91
2022/07/22 08:00:08;;;;;;;7.85;2.70;;;;;;;19.87;68.73;101962.25;5119494;27;20031;-91
2022/07/22 08:02:33;;;;;;;6.22;2.50;;;;;;;19.71;69.21;101956.47;5138065;27;20023;-91
2022/07/22 08:04:59;;;;;;;7.83;2.60;;;;;;;19.66;69.26;101961.06;5102648;27;20038;-90
2022/07/22 08:07:25;;;;;;;5.22;2.35;;;;;;;19.62;68.16;101963.47;5119084;27;20042;-91
2022/07/22 08:09:51;;;;;;;4.53;2.30;;;;;;;19.60;68.71;101958.19;5137634;27;20023;-90
2022/07/22 08:12:16;;;;;;;6.30;2.40;;;;;;;19.60;67.73;101952.69;5119657;27;20301;-89
2022/07/22 08:14:41;;;;;;;4.60;2.07;;;;;;;19.70;68.91;101953.97;5119778;27;20042;-90
2022/07/22 08:17:09;;;;;;;5.77;1.90;;;;;;;19.75;68.79;101954.91;5119475;27;20031;-90
2022/07/22 08:19:37;;;;;;;6.97;1.80;;;;;;;19.83;67.64;101944.56;5119581;27;20055;-90
2022/07/22 08:22:05;;;;;;;3.42;1.70;;;;;;;19.88;67.15;101950.97;5122203;27;20110;-90
2022/07/22 08:24:30;;;;;;;2.22;1.40;;;;;;;19.98;64.60;101959.41;5104043;27;20039;-90
2022/07/22 08:26:56;;;;;;;3.00;1.50;;;;;;;20.07;64.45;101957.06;5120812;27;20100;-90
2022/07/22 08:29:21;;;;;;;4.22;1.73;;;;;;;20.16;62.18;101950.03;5120302;27;20039;-90
2022/07/22 08:31:47;;;;;;;4.53;1.90;;;;;;;20.29;63.13;101951.59;5139503;27;20114;-90
2022/07/22 08:34:12;;;;;;;2.93;1.47;;;;;;;20.39;64.76;101953.66;5120191;27;20131;-90
2022/07/22 08:36:38;;;;;;;4.30;1.90;;;;;;;20.62;63.42;101947.06;5138497;27;20023;-90
2022/07/22 08:39:04;;;;;;;5.25;2.25;;;;;;;20.92;62.61;101940.28;5122264;27;20038;-90
2022/07/22 08:41:38;;;;;;;3.10;1.60;;;;;;;21.33;61.72;101940.72;5140259;27;20034;-90
2022/07/22 08:44:05;;;;;;;3.85;1.95;;;;;;;21.56;59.76;101933.22;5138515;27;20117;-90
2022/07/22 08:46:35;;;;;;;4.35;1.52;;;;;;;21.77;60.17;101936.13;5118897;27;20024;-91
2022/07/22 08:49:01;;;;;;;4.22;1.75;;;;;;;21.90;58.44;101930.16;5118945;27;20031;-90
2022/07/22 08:51:27;;;;;;;5.30;1.60;;;;;;;22.05;58.03;101935.75;5102218;27;20031;-89
2022/07/22 08:53:53;;;;;;;3.13;1.83;;;;;;;22.20;56.38;101928.66;5119530;27;20076;-90
2022/07/22 08:56:19;;;;;;;3.08;1.80;;;;;;;22.28;55.15;101928.19;5101723;27;20134;-90
2022/07/22 08:58:52;;;;;;;4.40;1.90;;;;;;;22.41;56.23;101927.72;5119196;27;20030;-90
2022/07/22 09:01:20;;;;;;;5.45;1.90;;;;;;;22.58;56.05;101933.03;5119239;27;20034;-90
2022/07/22 09:03:49;;;;;;;4.43;1.80;;;;;;;22.66;55.52;101931.69;5119736;27;20023;-90
2022/07/22 09:06:19;;;;;;;4.38;1.85;;;;;;;22.67;55.90;101930.56;5120095;27;20387;-90
2022/07/22 09:08:57;;;;;;;5.55;1.65;;;;;;;22.88;56.70;101942.56;5119599;27;20033;-91
2022/07/22 09:11:27;;;;;;;4.47;2.03;;;;;;;23.01;54.15;101935.66;5137725;27;20049;-90
2022/07/22 09:13:56;;;;;;;5.25;2.05;;;;;;;23.07;54.63;101933.72;5138012;27;20106;-90
2022/07/22 09:16:46;;;;;;;6.80;2.40;;;;;;;23.25;56.90;101944.34;5119120;27;20141;-90
2022/07/22 09:19:12;;;;;;;5.32;2.17;;;;;;;23.40;52.79;101926.03;5138214;27;20033;-90
2022/07/22 09:21:43;;;;;;;6.78;2.28;;;;;;;23.70;52.05;101930.75;5118188;27;20070;-90
2022/07/22 09:24:35;;;;;;;6.97;2.40;;;;;;;23.70;54.91;101928.00;5136813;27;20027;-91
2022/07/22 09:27:01;;;;;;;6.78;2.10;;;;;;;23.75;51.48;101924.38;5126146;27;20027;-90
2022/07/22 09:29:27;;;;;;;6.40;1.90;;;;;;;23.75;50.21;101927.16;5117907;27;20387;-91
2022/07/22 09:31:53;;;;;;;4.30;2.00;;;;;;;23.71;49.44;101913.03;5117940;27;20038;-90
2022/07/22 09:34:30;;;;;;;3.47;1.80;;;;;;;23.77;51.69;101920.22;5136343;27;20038;-90
2022/07/22 09:36:57;;;;;;;3.33;2.10;;;;;;;23.80;50.33;101922.44;5136021;27;20464;-91
2022/07/22 09:39:30;;;;;;;3.90;2.30;;;;;;;23.85;50.61;101910.53;5118122;27;20019;-90
2022/07/22 09:42:03;;;;;;;6.68;2.38;;;;;;;23.88;49.42;101917.47;5117881;27;20027;-90
2022/07/22 09:44:29;;;;;;;5.95;2.70;;;;;;;23.96;49.60;101901.13;5102129;27;20034;-90
2022/07/22 09:46:54;;;;;;;4.87;2.20;;;;;;;24.00;49.62;101904.16;5136099;27;20015;-91
2022/07/22 09:49:38;;;;;;;6.07;2.33;;;;;;;24.13;51.54;101898.00;5152195;27;20031;-91
2022/07/22 09:52:06;;;;;;;5.17;2.60;;;;;;;23.96;49.02;101903.03;5135971;27;20257;-91
2022/07/22 09:54:40;;;;;;;4.28;2.20;;;;;;;23.92;49.96;101899.19;5117364;27;20103;-90
2022/07/22 09:57:07;;;;;;;3.92;2.67;;;;;;;24.05;48.39;101901.38;5137034;27;20023;-91
2022/07/22 09:59:33;;;;;;;6.28;2.45;;;;;;;24.12;47.30;101901.06;5118574;27;20031;-92
2022/07/22 10:02:02;;;;;;;4.50;2.80;;;;;;;24.21;46.52;101904.91;5119583;27;20042;-92
2022/07/22 10:04:35;;;;;;;4.30;2.50;;;;;;;24.63;45.34;101897.28;5118377;27;20029;-89
2022/07/22 10:07:01;;;;;;;6.85;2.30;;;;;;;25.07;44.47;101904.81;5120298;27;20019;-89
2022/07/22 10:09:29;;;;;;;6.07;2.50;;;;;;;25.44;44.09;101903.44;5123794;27;20067;-89
2022/07/22 10:11:58;;;;;;;3.20;2.20;;;;;;;25.75;42.72;101911.50;5137466;27;20019;-89
2022/07/22 10:14:24;;;;;;;2.95;2.65;;;;;;;25.67;44.27;101904.59;5118499;27;20080;-89
2022/07/22 10:16:52;;;;;;;7.65;2.65;;;;;;;25.63;44.25;101908.25;5117247;27;20023;-89
2022/07/22 10:19:23;;;;;;;5.95;2.70;;;;;;;25.49;44.34;101897.81;5151914;27;20019;-89
2022/07/22 10:21:48;;;;;;;5.87;2.70;;;;;;;25.51;44.12;101901.16;5117235;27;20034;-89
2022/07/22 10:24:23;;;;;;;5.28;2.65;;;;;;;25.38;44.50;101908.19;5116832;27;20382;-89
2022/07/22 10:26:55;;;;;;;6.20;3.10;;;;;;;25.45;45.92;101904.25;5135403;27;20023;-89
2022/07/22 10:29:32;;;;;;;4.90;2.60;;;;;;;25.47;45.51;101907.59;5117298;27;20053;-89
2022/07/22 10:32:15;;;;;;;10.27;2.92;;;;;;;25.55;46.57;101904.97;5118226;27;20059;-89
2022/07/22 10:34:42;;;;;;;3.55;2.60;;;;;;;25.55;44.55;101898.59;5135301;27;20031;-89
2022/07/22 10:37:41;;;;;;;9.73;3.00;;;;;;;25.80;46.65;101902.28;5117127;27;20097;-89
2022/07/22 10:40:20;;;;;;;4.30;2.90;;;;;;;25.89;44.78;101909.66;5117225;27;20172;-90
2022/07/22 10:43:01;;;;;;;3.70;2.90;;;;;;;26.23;44.22;101907.94;5116494;27;20045;-90
2022/07/22 10:45:32;;;;;;;6.78;2.97;;;;;;;26.61;42.62;101900.50;5116835;27;20238;-89
2022/07/22 10:47:59;;;;;;;4.75;2.90;;;;;;;26.89;40.52;101891.53;5116852;27;20031;-89
2022/07/22 10:50:39;;;;;;;4.72;2.85;;;;;;;27.00;42.04;101897.75;5099500;27;20027;-89
2022/07/22 10:53:13;;;;;;;5.13;2.95;;;;;;;27.14;40.08;101891.13;5117270;27;20066;-90
2022/07/22 10:56:05;;;;;;;5.57;3.40;;;;;;;27.04;42.05;101884.88;5116628;27;20051;-90
2022/07/22 10:58:33;;;;;;;3.95;3.10;;;;;;;26.59;40.82;101885.25;5116487;27;20080;-89
2022/07/22 11:01:04;;;;;;;5.78;3.03;;;;;;;26.00;42.06;101879.00;5116794;27;20056;-89
2022/07/22 11:03:37;;;;;;;9.05;3.47;;;;;;;26.16;41.73;101876.88;5135514;27;20114;-89
2022/07/22 11:06:22;;;;;;;4.95;3.35;;;;;;;26.55;42.00;101879.44;5100112;28;20042;-90
2022/07/22 11:08:54;;;;;;;5.73;3.43;;;;;;;26.68;40.03;101877.91;5116747;28;20459;-89
2022/07/22 11:11:34;;;;;;;6.05;3.33;;;;;;;26.92;40.66;101872.25;5118985;27;20467;-90
2022/07/22 11:14:00;;;;;;;7.90;3.30;;;;;;;27.22;39.05;101872.88;5120693;27;20367;-86
2022/07/22 11:16:26;;;;;;;4.35;3.17;;;;;;;27.42;38.37;101873.72;5138816;27;20057;-86